Time,TemperatureF,DewpointF,PressureIn,WindDirection,WindDirectionDegrees,WindSpeedMPH,WindSpeedGustMPH,Humidity,HourlyPrecipIn,Conditions,Clouds,dailyrainin,SoftwareType,DateUTC
2013-09-03 00:12:00,50.0,45.0,29.99,North,-999,-999.0,-999.0,82,-99.99,,,-99.99,,2013-09-03 05:12:00,
2013-09-03 00:23:00,50.0,45.0,29.99,North,-999,-999.0,-999.0,83,-99.99,,,-99.99,,2013-09-03 05:23:00,
2013-09-03 00:43:00,50.0,45.0,29.99,North,-999,-999.0,-999.0,84,-99.99,,,-99.99,,2013-09-03 05:43:00,
2013-09-03 00:52:00,50.0,45.0,29.99,North,-999,-999.0,-999.0,84,-99.99,,,-99.99,,2013-09-03 05:52:00,
2013-09-03 01:12:00,49.0,44.0,29.99,North,-999,-999.0,-999.0,82,-99.99,,,-99.99,,2013-09-03 06:12:00,
2013-09-03 01:22:00,48.0,43.0,29.99,North,-999,-999.0,-999.0,82,-99.99,,,-99.99,,2013-09-03 06:22:00,
2013-09-03 01:43:00,49.0,44.0,29.99,North,-999,-999.0,-999.0,84,-99.99,,,-99.99,,2013-09-03 06:43:00,
2013-09-03 01:52:00,49.0,45.0,30.02,North,-999,-999.0,-999.0,86,-99.99,,,-99.99,,2013-09-03 06:52:00,
2013-09-03 02:12:00,48.0,44.0,30.02,North,-999,-999.0,-999.0,86,-99.99,,,-99.99,,2013-09-03 07:12:00,
2013-09-03 02:22:00,48.0,44.0,30.02,North,-999,-999.0,-999.0,86,-99.99,,,-99.99,,2013-09-03 07:22:00,
2013-09-03 02:42:00,47.0,42.0,30.02,North,-999,-999.0,-999.0,83,-99.99,,,-99.99,,2013-09-03 07:42:00,
2013-09-03 02:52:00,47.0,42.0,30.02,North,-999,-999.0,-999.0,84,-99.99,,,-99.99,,2013-09-03 07:52:00,
2013-09-03 03:11:00,46.0,41.0,30.02,North,-999,-999.0,-999.0,84,-99.99,,,-99.99,,2013-09-03 08:11:00,
2013-09-03 03:22:00,46.0,41.0,30.02,North,-999,-999.0,-999.0,84,-99.99,,,-99.99,,2013-09-03 08:22:00,
2013-09-03 03:52:00,45.0,41.0,30.02,North,-999,-999.0,-999.0,86,-99.99,,,-99.99,,2013-09-03 08:52:00,
2013-09-03 04:11:00,45.0,41.0,30.02,North,-999,-999.0,-999.0,86,-99.99,,,-99.99,,2013-09-03 09:11:00,
2013-09-03 04:21:00,45.0,41.0,30.05,North,-999,-999.0,-999.0,86,-99.99,,,-99.99,,2013-09-03 09:21:00,
2013-09-03 04:43:00,46.0,42.0,30.02,North,-999,-999.0,-999.0,87,-99.99,,,-99.99,,2013-09-03 09:43:00,
2013-09-03 04:53:00,45.0,41.0,30.02,North,-999,-999.0,-999.0,87,-99.99,,,-99.99,,2013-09-03 09:53:00,
2013-09-03 05:13:00,45.0,41.0,30.02,North,-999,-999.0,-999.0,87,-99.99,,,-99.99,,2013-09-03 10:13:00,
2013-09-03 05:23:00,44.0,39.0,30.05,North,-999,-999.0,-999.0,84,-99.99,,,-99.99,,2013-09-03 10:23:00,
2013-09-03 05:42:00,44.0,40.0,30.05,North,-999,-999.0,-999.0,86,-99.99,,,-99.99,,2013-09-03 10:42:00,
2013-09-03 05:53:00,44.0,40.0,30.05,North,-999,-999.0,-999.0,87,-99.99,,,-99.99,,2013-09-03 10:53:00,
2013-09-03 06:02:00,44.0,40.0,30.05,North,-999,-999.0,-999.0,87,-99.99,,,-99.99,,2013-09-03 11:02:00,
2013-09-03 06:12:00,44.0,40.0,30.05,North,-999,-999.0,-999.0,87,-99.99,,,-99.99,,2013-09-03 11:12:00,
2013-09-03 06:23:00,43.0,38.0,30.05,North,-999,-999.0,-999.0,84,-99.99,,,-99.99,,2013-09-03 11:23:00,
2013-09-03 06:43:00,43.0,39.0,30.05,North,-999,-999.0,-999.0,86,-99.99,,,-99.99,,2013-09-03 11:43:00,
2013-09-03 06:52:00,43.0,38.0,30.05,North,-999,-999.0,-999.0,84,-99.99,,,-99.99,,2013-09-03 11:52:00,
2013-09-03 07:12:00,44.0,39.0,30.05,North,-999,-999.0,-999.0,84,-99.99,,,-99.99,,2013-09-03 12:12:00,
2013-09-03 07:22:00,44.0,39.0,30.05,North,-999,-999.0,-999.0,84,-99.99,,,-99.99,,2013-09-03 12:22:00,
2013-09-03 07:42:00,47.0,42.0,30.05,North,-999,-999.0,-999.0,84,-99.99,,,-99.99,,2013-09-03 12:42:00,
2013-09-03 07:52:00,49.0,45.0,30.08,North,-999,-999.0,-999.0,86,-99.99,,,-99.99,,2013-09-03 12:52:00,
2013-09-03 08:11:00,51.0,46.0,30.08,North,-999,-999.0,-999.0,84,-99.99,,,-99.99,,2013-09-03 13:11:00,
2013-09-03 08:22:00,53.0,48.0,30.08,North,-999,-999.0,-999.0,82,-99.99,,,-99.99,,2013-09-03 13:22:00,
2013-09-03 08:42:00,54.0,49.0,30.08,North,-999,-999.0,-999.0,82,-99.99,,,-99.99,,2013-09-03 13:42:00,
2013-09-03 08:52:00,55.0,50.0,30.08,North,-999,-999.0,-999.0,82,-99.99,,,-99.99,,2013-09-03 13:52:00,
2013-09-03 10:22:00,62.0,53.0,30.08,North,-999,-999.0,-999.0,73,-99.99,,,-99.99,,2013-09-03 15:22:00,
2013-09-03 10:43:00,62.0,53.0,30.08,North,-999,-999.0,-999.0,73,-99.99,,,-99.99,,2013-09-03 15:43:00,
2013-09-03 10:54:00,62.0,53.0,30.08,North,-999,-999.0,-999.0,73,-99.99,,,-99.99,,2013-09-03 15:54:00,
2013-09-03 11:14:00,65.0,55.0,30.08,North,-999,-999.0,-999.0,70,-99.99,,,-99.99,,2013-09-03 16:14:00,
2013-09-03 11:24:00,67.0,56.0,30.08,North,-999,-999.0,-999.0,68,-99.99,,,-99.99,,2013-09-03 16:24:00,
2013-09-03 11:43:00,66.0,55.0,30.08,North,-999,-999.0,-999.0,67,-99.99,,,-99.99,,2013-09-03 16:43:00,
2013-09-03 11:54:00,67.0,52.0,30.05,North,-999,-999.0,-999.0,59,-99.99,,,-99.99,,2013-09-03 16:54:00,
2013-09-03 12:13:00,68.0,54.0,30.05,North,-999,-999.0,-999.0,60,-99.99,,,-99.99,,2013-09-03 17:13:00,
2013-09-03 12:23:00,70.0,55.0,30.05,North,-999,-999.0,-999.0,58,-99.99,,,-99.99,,2013-09-03 17:23:00,
2013-09-03 12:43:00,70.0,54.0,30.05,North,-999,-999.0,-999.0,56,-99.99,,,-99.99,,2013-09-03 17:43:00,
2013-09-03 12:52:00,72.0,52.0,30.05,North,-999,-999.0,-999.0,50,-99.99,,,-99.99,,2013-09-03 17:52:00,
2013-09-03 13:12:00,73.0,54.0,30.02,North,-999,-999.0,-999.0,51,-99.99,,,-99.99,,2013-09-03 18:12:00,
2013-09-03 13:22:00,74.0,54.0,30.02,North,-999,-999.0,-999.0,50,-99.99,,,-99.99,,2013-09-03 18:22:00,
2013-09-03 13:43:00,74.0,52.0,30.02,North,-999,-999.0,-999.0,47,-99.99,,,-99.99,,2013-09-03 18:43:00,
2013-09-03 13:52:00,74.0,52.0,30.02,North,-999,-999.0,-999.0,47,-99.99,,,-99.99,,2013-09-03 18:52:00,
2013-09-03 14:11:00,77.0,52.0,30.02,North,-999,-999.0,-999.0,42,-99.99,,,-99.99,,2013-09-03 19:11:00,
2013-09-03 14:22:00,78.0,55.0,29.99,North,-999,-999.0,-999.0,45,-99.99,,,-99.99,,2013-09-03 19:22:00,
2013-09-03 14:42:00,79.0,55.0,29.99,North,-999,-999.0,-999.0,43,-99.99,,,-99.99,,2013-09-03 19:42:00,
2013-09-03 15:11:00,77.0,52.0,29.99,North,-999,-999.0,-999.0,42,-99.99,,,-99.99,,2013-09-03 20:11:00,
2013-09-03 15:22:00,77.0,53.0,29.99,North,-999,-999.0,-999.0,44,-99.99,,,-99.99,,2013-09-03 20:22:00,
2013-09-03 15:42:00,79.0,54.0,29.96,North,-999,-999.0,-999.0,42,-99.99,,,-99.99,,2013-09-03 20:42:00,
2013-09-03 15:53:00,79.0,54.0,29.96,North,-999,-999.0,-999.0,42,-99.99,,,-99.99,,2013-09-03 20:53:00,
2013-09-03 16:12:00,78.0,54.0,29.96,North,-999,-999.0,-999.0,44,-99.99,,,-99.99,,2013-09-03 21:12:00,
2013-09-03 16:22:00,78.0,52.0,29.96,North,-999,-999.0,-999.0,41,-99.99,,,-99.99,,2013-09-03 21:22:00,
2013-09-03 16:44:00,77.0,53.0,29.96,North,-999,-999.0,-999.0,44,-99.99,,,-99.99,,2013-09-03 21:44:00,
2013-09-03 16:54:00,77.0,53.0,29.96,North,-999,-999.0,-999.0,44,-99.99,,,-99.99,,2013-09-03 21:54:00,
2013-09-03 17:13:00,78.0,54.0,29.96,North,-999,-999.0,-999.0,44,-99.99,,,-99.99,,2013-09-03 22:13:00,
2013-09-03 17:23:00,76.0,51.0,29.96,North,-999,-999.0,-999.0,41,-99.99,,,-99.99,,2013-09-03 22:23:00,
2013-09-03 17:52:00,75.0,52.0,29.96,North,-999,-999.0,-999.0,44,-99.99,,,-99.99,,2013-09-03 22:52:00,
2013-09-03 18:12:00,75.0,52.0,29.96,North,-999,-999.0,-999.0,45,-99.99,,,-99.99,,2013-09-03 23:12:00,
2013-09-03 18:22:00,75.0,53.0,29.96,North,-999,-999.0,-999.0,46,-99.99,,,-99.99,,2013-09-03 23:22:00,
2013-09-03 18:42:00,74.0,51.0,29.96,North,-999,-999.0,-999.0,45,-99.99,,,-99.99,,2013-09-03 23:42:00,
2013-09-03 18:54:00,73.0,50.0,29.96,North,-999,-999.0,-999.0,45,-99.99,,,-99.99,,2013-09-03 23:54:00,
2013-09-03 19:12:00,72.0,51.0,29.96,North,-999,-999.0,-999.0,47,-99.99,,,-99.99,,2013-09-04 00:12:00,
2013-09-03 19:22:00,71.0,51.0,29.96,North,-999,-999.0,-999.0,49,-99.99,,,-99.99,,2013-09-04 00:22:00,
2013-09-03 19:42:00,68.0,52.0,29.96,North,-999,-999.0,-999.0,56,-99.99,,,-99.99,,2013-09-04 00:42:00,
2013-09-03 20:42:00,61.0,50.0,29.96,North,-999,-999.0,-999.0,67,-99.99,,,-99.99,,2013-09-04 01:42:00,
2013-09-03 20:53:00,61.0,50.0,29.96,North,-999,-999.0,-999.0,67,-99.99,,,-99.99,,2013-09-04 01:53:00,
2013-09-03 21:02:00,61.0,50.0,29.96,North,-999,-999.0,-999.0,67,-99.99,,,-99.99,,2013-09-04 02:02:00,
2013-09-03 22:22:00,56.0,49.0,29.96,North,-999,-999.0,-999.0,76,-99.99,,,-99.99,,2013-09-04 03:22:00,
2013-09-03 22:44:00,56.0,49.0,29.96,North,-999,-999.0,-999.0,76,-99.99,,,-99.99,,2013-09-04 03:44:00,
2013-09-03 22:54:00,56.0,49.0,29.99,North,-999,-999.0,-999.0,77,-99.99,,,-99.99,,2013-09-04 03:54:00,
2013-09-03 23:14:00,55.0,48.0,29.99,North,-999,-999.0,-999.0,77,-99.99,,,-99.99,,2013-09-04 04:14:00,
2013-09-03 23:44:00,54.0,48.0,29.99,North,-999,-999.0,-999.0,79,-99.99,,,-99.99,,2013-09-04 04:44:00,
2013-09-03 23:54:00,54.0,48.0,29.99,North,-999,-999.0,-999.0,79,-99.99,,,-99.99,,2013-09-04 04:54:00,